createdAt,value
2023-02-15T00:01:43.776Z,59.12
2023-02-15T00:04:29.765Z,57.42
2023-02-15T00:07:15.673Z,59.71
2023-02-15T00:10:01.610Z,61.98
2023-02-15T00:12:47.525Z,59.25
2023-02-15T00:15:33.334Z,58.01
2023-02-15T00:18:19.192Z,57.52
2023-02-15T00:21:05.037Z,56.94
2023-02-15T00:23:50.920Z,56.29
2023-02-15T00:26:36.784Z,56.66
2023-02-15T00:29:23.159Z,56.37
2023-02-15T00:32:09.148Z,55.90
2023-02-15T00:34:55.063Z,54.26
2023-02-15T00:37:40.907Z,53.15
2023-02-15T00:40:26.878Z,53.14
2023-02-15T00:43:12.883Z,51.54
2023-02-15T00:45:58.715Z,51.36
2023-02-15T00:48:44.644Z,51.56
2023-02-15T00:51:30.465Z,50.56
2023-02-15T00:54:16.366Z,50.29
2023-02-15T00:57:04.250Z,49.93
2023-02-15T00:59:50.065Z,49.23
2023-02-15T01:02:36.048Z,49.04
2023-02-15T01:05:22.142Z,48.75
2023-02-15T01:08:08.000Z,50.39
2023-02-15T01:10:53.872Z,50.61
2023-02-15T01:13:39.764Z,50.76
2023-02-15T01:16:25.633Z,50.72
2023-02-15T01:19:12.003Z,49.42
2023-02-15T01:21:57.712Z,48.74
2023-02-15T01:24:43.588Z,48.09
2023-02-15T01:27:29.517Z,47.45
2023-02-15T01:30:15.445Z,46.57
2023-02-15T01:33:01.465Z,47.37
2023-02-15T01:35:47.291Z,46.88
2023-02-15T01:38:33.187Z,48.73
2023-02-15T01:41:19.137Z,49.54
2023-02-15T01:44:04.978Z,51.45
2023-02-15T01:46:52.890Z,51.58
2023-02-15T01:49:38.771Z,50.33
2023-02-15T01:52:24.671Z,53.06
2023-02-15T01:55:10.576Z,55.37
2023-02-15T01:57:56.328Z,55.83
2023-02-15T02:00:42.199Z,58.16
2023-02-15T02:03:28.106Z,57.54
2023-02-15T02:06:13.756Z,58.16
2023-02-15T02:08:59.662Z,58.75
2023-02-15T02:11:45.337Z,59.03
2023-02-15T02:14:31.179Z,57.84
2023-02-15T02:17:17.121Z,57.58
2023-02-15T02:20:03.041Z,59.39
2023-02-15T02:22:48.873Z,60.42
2023-02-15T02:25:34.752Z,61.25
2023-02-15T02:28:20.661Z,61.87
2023-02-15T02:31:06.575Z,62.34
2023-02-15T02:33:52.666Z,63.90
2023-02-15T02:36:38.507Z,64.31
2023-02-15T02:39:24.296Z,63.44
2023-02-15T02:42:10.001Z,63.16
2023-02-15T02:44:55.867Z,61.79
2023-02-15T02:47:41.689Z,60.98
2023-02-15T02:50:27.411Z,63.86
2023-02-15T02:53:13.468Z,64.05
2023-02-15T02:55:59.607Z,63.95
2023-02-15T02:58:45.647Z,62.39
2023-02-15T03:01:31.539Z,62.84
2023-02-15T03:04:17.442Z,64.57
2023-02-15T03:07:05.295Z,63.41
2023-02-15T03:09:51.189Z,61.60
2023-02-15T03:12:37.054Z,59.24
2023-02-15T03:15:22.891Z,57.14
2023-02-15T03:18:08.778Z,57.96
2023-02-15T03:20:54.631Z,58.16
2023-02-15T03:23:40.604Z,57.65
2023-02-15T03:26:26.493Z,58.40
2023-02-15T03:29:12.449Z,59.93
2023-02-15T03:31:58.576Z,61.81
2023-02-15T03:34:44.798Z,62.81
2023-02-15T03:37:30.770Z,63.99
2023-02-15T03:40:16.607Z,65.67
2023-02-15T03:43:02.525Z,63.77
2023-02-15T03:45:48.345Z,62.58
2023-02-15T03:48:34.182Z,64.00
2023-02-15T03:51:20.209Z,62.32
2023-02-15T03:54:06.203Z,62.33
2023-02-15T03:56:52.137Z,61.40
2023-02-15T03:59:38.034Z,60.53
2023-02-15T04:02:23.799Z,61.42
2023-02-15T04:05:09.752Z,62.37
2023-02-15T04:07:55.940Z,63.26
2023-02-15T04:10:41.813Z,62.98
2023-02-15T04:13:47.897Z,60.66
2023-02-15T04:16:33.920Z,61.16
2023-02-15T04:19:19.723Z,62.03
2023-02-15T04:22:05.556Z,62.71
2023-02-15T04:24:51.442Z,64.45
2023-02-15T04:27:37.186Z,63.18
2023-02-15T04:30:23.242Z,64.34
2023-02-15T04:33:09.258Z,61.78
2023-02-15T04:35:55.141Z,59.42
2023-02-15T04:38:41.030Z,60.80
2023-02-15T04:41:26.737Z,63.18
2023-02-15T04:44:12.447Z,63.08
2023-02-15T04:46:58.356Z,62.44
2023-02-15T04:49:44.311Z,61.71
2023-02-15T04:52:30.390Z,62.32
2023-02-15T04:55:16.304Z,65.12
2023-02-15T04:58:02.232Z,64.67
2023-02-15T05:00:48.347Z,64.74
2023-02-15T05:03:34.250Z,64.43
2023-02-15T05:06:20.167Z,63.81
2023-02-15T05:09:06.228Z,63.73
2023-02-15T05:11:52.090Z,63.70
2023-02-15T05:14:38.027Z,63.41
2023-02-15T05:17:23.813Z,64.21
2023-02-15T05:20:09.761Z,63.21
2023-02-15T05:22:55.654Z,62.79
2023-02-15T05:25:41.691Z,63.81
2023-02-15T05:28:27.705Z,61.88
2023-02-15T05:31:13.804Z,60.51
2023-02-15T05:33:59.749Z,57.50
2023-02-15T05:36:45.705Z,57.20
2023-02-15T05:39:31.560Z,57.73
2023-02-15T05:42:17.558Z,57.03
2023-02-15T05:45:03.577Z,58.58
2023-02-15T05:47:49.443Z,59.77
2023-02-15T05:50:35.318Z,61.19
2023-02-15T05:53:21.197Z,58.55
2023-02-15T05:56:07.054Z,55.75
2023-02-15T05:58:52.825Z,58.52
2023-02-15T06:01:38.621Z,59.85
2023-02-15T06:04:24.444Z,60.07
2023-02-15T06:07:10.401Z,58.22
2023-02-15T06:09:56.224Z,54.61
2023-02-15T06:12:42.097Z,51.93
2023-02-15T06:15:28.081Z,51.75
2023-02-15T06:18:13.928Z,55.43
2023-02-15T06:20:59.970Z,55.72
2023-02-15T06:23:45.729Z,57.10
2023-02-15T06:26:31.670Z,58.73
2023-02-15T06:29:17.562Z,57.80
2023-02-15T06:32:03.543Z,57.89
2023-02-15T06:34:49.810Z,58.41
2023-02-15T06:37:35.625Z,58.21
2023-02-15T06:40:21.466Z,58.99
2023-02-15T06:43:07.540Z,58.83
2023-02-15T06:45:53.342Z,58.70
2023-02-15T06:48:39.212Z,58.90
2023-02-15T06:51:24.992Z,59.05
2023-02-15T06:54:12.982Z,59.89
2023-02-15T06:56:58.833Z,60.56
2023-02-15T06:59:44.670Z,59.90
2023-02-15T07:02:30.499Z,59.29
2023-02-15T07:05:16.431Z,59.61
2023-02-15T07:08:02.182Z,61.29
2023-02-15T07:10:48.040Z,60.73
2023-02-15T07:13:33.965Z,59.93
2023-02-15T07:16:19.982Z,60.36
2023-02-15T07:19:05.835Z,59.53
2023-02-15T07:21:51.524Z,57.69
2023-02-15T07:24:37.501Z,59.17
2023-02-15T07:27:23.540Z,59.51
2023-02-15T07:30:09.469Z,59.00
2023-02-15T07:32:55.492Z,57.83
2023-02-15T07:35:41.414Z,56.58
2023-02-15T07:38:27.297Z,55.35
2023-02-15T07:41:13.148Z,53.24
2023-02-15T07:43:58.923Z,50.90
2023-02-15T07:46:44.818Z,53.08
2023-02-15T07:49:30.918Z,54.72
2023-02-15T07:52:16.675Z,54.31
2023-02-15T07:55:02.514Z,52.94
2023-02-15T07:57:48.350Z,55.22
2023-02-15T08:00:34.244Z,54.49
2023-02-15T08:03:20.322Z,53.17
2023-02-15T08:06:06.482Z,52.02
2023-02-15T08:08:52.423Z,51.35
2023-02-15T08:11:38.509Z,48.78
2023-02-15T08:14:24.394Z,47.07
2023-02-15T08:17:10.316Z,46.51
2023-02-15T08:19:56.162Z,45.26
2023-02-15T08:22:42.132Z,44.79
2023-02-15T08:25:27.985Z,43.95
2023-02-15T08:28:13.902Z,43.30
2023-02-15T08:31:00.235Z,48.07
2023-02-15T08:33:46.348Z,46.78
2023-02-15T08:36:32.305Z,44.48
2023-02-15T08:39:20.170Z,42.09
2023-02-15T08:42:06.103Z,42.18
2023-02-15T08:44:51.966Z,42.88
2023-02-15T08:47:38.170Z,41.11
2023-02-15T08:50:24.492Z,40.66
2023-02-15T08:53:10.311Z,39.64
2023-02-15T08:55:56.317Z,39.21
2023-02-15T08:58:42.103Z,38.82
2023-02-15T09:01:28.082Z,38.01
2023-02-15T09:04:14.189Z,38.89
2023-02-15T09:07:00.051Z,39.61
2023-02-15T09:09:45.898Z,39.80
2023-02-15T09:12:31.829Z,40.79
2023-02-15T09:15:17.762Z,41.72
2023-02-15T09:18:03.799Z,43.23
2023-02-15T09:20:49.725Z,43.09
2023-02-15T09:23:35.517Z,43.44
2023-02-15T09:26:21.582Z,45.76
2023-02-15T09:29:07.582Z,47.18
2023-02-15T09:31:53.546Z,49.21
2023-02-15T09:34:39.421Z,45.55
2023-02-15T09:37:25.463Z,46.34
2023-02-15T09:40:11.461Z,41.46
2023-02-15T09:42:57.304Z,43.79
2023-02-15T09:45:43.287Z,43.06
2023-02-15T09:48:29.201Z,40.35
2023-02-15T09:51:15.143Z,38.95
2023-02-15T09:54:01.118Z,38.36
2023-02-15T09:56:46.946Z,38.63
2023-02-15T09:59:32.885Z,38.19
2023-02-15T10:02:18.932Z,39.67
2023-02-15T10:05:04.877Z,39.30
2023-02-15T10:07:50.850Z,38.87
2023-02-15T10:10:36.761Z,40.06
2023-02-15T10:13:22.702Z,39.72
2023-02-15T10:16:08.554Z,39.51
2023-02-15T10:18:54.492Z,41.33
2023-02-15T10:21:40.351Z,41.89
2023-02-15T10:24:26.244Z,42.60
2023-02-15T10:27:12.117Z,41.26
2023-02-15T10:29:58.069Z,43.31
2023-02-15T10:32:43.990Z,43.43
2023-02-15T10:35:29.950Z,46.96
2023-02-15T10:38:16.077Z,47.29
2023-02-15T10:41:02.280Z,47.64
2023-02-15T10:43:48.388Z,48.52
2023-02-15T10:46:34.460Z,50.49
2023-02-15T10:49:20.722Z,53.35
2023-02-15T10:52:06.639Z,53.68
2023-02-15T10:54:52.573Z,53.49
2023-02-15T10:57:38.554Z,53.78
2023-02-15T11:00:24.670Z,53.92
2023-02-15T11:03:10.530Z,52.63
2023-02-15T11:05:56.581Z,52.17
2023-02-15T11:08:42.541Z,51.35
2023-02-15T11:11:28.400Z,53.03
2023-02-15T11:14:14.292Z,50.96
2023-02-15T11:17:00.165Z,51.69
2023-02-15T11:19:46.154Z,51.74
2023-02-15T11:22:32.210Z,49.94
2023-02-15T11:25:18.127Z,49.15
2023-02-15T11:28:04.130Z,49.21
2023-02-15T11:30:50.267Z,48.07
2023-02-15T11:33:36.062Z,48.63
2023-02-15T11:36:22.065Z,47.08
2023-02-15T11:39:07.971Z,45.92
2023-02-15T11:41:53.878Z,45.32
2023-02-15T11:44:39.918Z,44.63
2023-02-15T11:47:25.836Z,44.86
2023-02-15T11:50:11.829Z,44.79
2023-02-15T11:52:57.802Z,46.10
2023-02-15T11:55:43.716Z,46.48
2023-02-15T11:58:29.739Z,45.42
2023-02-15T12:01:15.564Z,44.60
2023-02-15T12:04:01.646Z,44.65
2023-02-15T12:06:47.499Z,43.40
2023-02-15T12:09:33.292Z,44.22
2023-02-15T12:12:21.671Z,43.32
2023-02-15T12:15:09.541Z,44.27
2023-02-15T12:17:55.481Z,44.87
2023-02-15T12:20:41.280Z,45.37
2023-02-15T12:23:27.219Z,44.52
2023-02-15T12:26:13.108Z,44.37
2023-02-15T12:28:59.110Z,43.62
2023-02-15T12:31:45.079Z,43.98
2023-02-15T12:34:31.280Z,43.41
2023-02-15T12:37:17.174Z,45.65
2023-02-15T12:40:03.050Z,44.70
2023-02-15T12:42:49.013Z,43.54
2023-02-15T12:45:35.040Z,44.95
2023-02-15T12:48:20.926Z,44.90
2023-02-15T12:51:06.967Z,47.89
2023-02-15T12:53:53.163Z,45.79
2023-02-15T12:56:39.140Z,44.27
2023-02-15T12:59:25.097Z,45.24
2023-02-15T13:02:11.042Z,46.96
2023-02-15T13:04:56.968Z,48.98
2023-02-15T13:07:42.848Z,52.32
2023-02-15T13:10:28.742Z,52.82
2023-02-15T13:13:14.608Z,50.48
2023-02-15T13:16:00.462Z,53.30
2023-02-15T13:18:46.704Z,52.50
2023-02-15T13:21:32.668Z,52.26
2023-02-15T13:24:18.518Z,52.80
2023-02-15T13:27:14.921Z,52.06
2023-02-15T13:30:01.969Z,52.15
2023-02-15T13:32:47.967Z,49.83
2023-02-15T13:35:33.966Z,47.33
2023-02-15T13:38:19.809Z,48.38
2023-02-15T13:41:05.671Z,46.34
2023-02-15T13:43:51.466Z,48.28
2023-02-15T13:46:37.385Z,48.54
2023-02-15T13:49:23.326Z,44.00
2023-02-15T13:52:09.118Z,41.85
2023-02-15T13:54:54.996Z,43.29
2023-02-15T13:57:40.977Z,42.10
2023-02-15T14:00:26.741Z,39.69
2023-02-15T14:03:12.690Z,40.48
2023-02-15T14:05:58.632Z,39.55
2023-02-15T14:08:44.687Z,41.48
2023-02-15T14:11:30.672Z,42.76
2023-02-15T14:14:16.613Z,43.23
2023-02-15T14:17:07.225Z,46.03
2023-02-15T14:19:53.799Z,45.66
2023-02-15T14:22:39.702Z,47.89
2023-02-15T14:25:25.483Z,47.24
2023-02-15T14:28:11.441Z,47.20
2023-02-15T14:30:57.509Z,48.11
2023-02-15T14:33:43.848Z,47.74
2023-02-15T14:36:30.048Z,47.08
2023-02-15T14:39:16.127Z,46.09
2023-02-15T14:42:02.035Z,46.32
2023-02-15T14:44:48.002Z,45.94
2023-02-15T14:47:33.936Z,44.81
2023-02-15T14:50:19.922Z,44.25
2023-02-15T14:53:05.923Z,44.00
2023-02-15T14:55:51.918Z,43.75
2023-02-15T14:58:37.796Z,42.33
2023-02-15T15:01:23.675Z,42.84
2023-02-15T15:04:09.843Z,43.74
2023-02-15T15:06:56.086Z,43.33
2023-02-15T15:09:42.290Z,43.01
2023-02-15T15:12:28.218Z,41.75
2023-02-15T15:15:14.070Z,38.46
2023-02-15T15:17:59.973Z,36.44
2023-02-15T15:20:50.218Z,33.45
2023-02-15T15:23:37.176Z,32.11
2023-02-15T15:26:22.935Z,34.77
2023-02-15T15:29:09.547Z,35.92
2023-02-15T15:31:55.482Z,35.51
2023-02-15T15:34:41.821Z,34.53
2023-02-15T15:37:27.765Z,35.45
2023-02-15T15:40:13.569Z,39.31
2023-02-15T15:42:59.565Z,40.27
2023-02-15T15:45:45.487Z,40.84
2023-02-15T15:48:31.320Z,41.08
2023-02-15T15:51:17.393Z,41.16
2023-02-15T15:54:03.220Z,41.22
2023-02-15T15:56:49.243Z,40.24
2023-02-15T15:59:35.157Z,39.57
2023-02-15T16:02:21.010Z,39.54
2023-02-15T16:05:06.999Z,38.66
2023-02-15T16:07:52.976Z,37.29
2023-02-15T16:10:38.902Z,34.18
2023-02-15T16:13:24.938Z,33.17
2023-02-15T16:16:10.690Z,32.40
2023-02-15T16:18:56.641Z,31.76
2023-02-15T16:21:42.499Z,30.54
2023-02-15T16:24:28.397Z,30.68
2023-02-15T16:27:14.218Z,30.61
2023-02-15T16:29:59.984Z,30.11
2023-02-15T16:32:46.011Z,30.16
2023-02-15T16:35:32.087Z,30.50
2023-02-15T16:38:18.036Z,30.18
2023-02-15T16:41:04.242Z,30.37
2023-02-15T16:43:50.487Z,31.85
2023-02-15T16:46:36.424Z,32.04
2023-02-15T16:49:22.523Z,33.34
2023-02-15T16:52:08.479Z,33.14
2023-02-15T16:54:54.307Z,33.10
2023-02-15T16:57:40.134Z,32.51
2023-02-15T17:00:26.020Z,31.41
2023-02-15T17:03:12.519Z,31.83
2023-02-15T17:05:58.904Z,32.45
2023-02-15T17:08:44.737Z,32.05
2023-02-15T17:11:30.738Z,31.67
2023-02-15T17:14:16.706Z,31.85
2023-02-15T17:17:02.624Z,31.92
2023-02-15T17:19:48.475Z,32.96
2023-02-15T17:22:34.453Z,33.67
2023-02-15T17:25:20.378Z,33.32
2023-02-15T17:28:06.322Z,33.07
2023-02-15T17:30:52.328Z,33.33
2023-02-15T17:33:38.387Z,33.87
2023-02-15T17:36:24.243Z,34.72
2023-02-15T17:39:12.210Z,34.29
2023-02-15T17:41:58.404Z,35.31
2023-02-15T17:44:44.278Z,35.03
2023-02-15T17:47:30.236Z,36.09
2023-02-15T17:50:16.149Z,37.77
2023-02-15T17:53:01.879Z,36.93
2023-02-15T17:55:47.858Z,36.93
2023-02-15T17:58:33.755Z,37.84
2023-02-15T18:01:19.706Z,39.24
2023-02-15T18:04:05.699Z,39.67
2023-02-15T18:06:51.549Z,40.46
2023-02-15T18:09:37.474Z,40.27
2023-02-15T18:12:23.497Z,41.36
2023-02-15T18:15:11.557Z,44.07
2023-02-15T18:17:58.964Z,44.53
2023-02-15T18:20:44.915Z,44.50
2023-02-15T18:23:30.771Z,43.09
2023-02-15T18:26:16.716Z,42.08
2023-02-15T18:29:02.558Z,43.21
2023-02-15T18:31:48.409Z,41.89
2023-02-15T18:34:34.744Z,42.81
2023-02-15T18:37:20.541Z,42.64
2023-02-15T18:40:06.449Z,42.63
2023-02-15T18:42:52.407Z,43.18
2023-02-15T18:45:38.353Z,42.02
2023-02-15T18:48:24.570Z,42.50
2023-02-15T18:51:10.561Z,41.69
2023-02-15T18:53:56.427Z,41.67
2023-02-15T18:56:42.490Z,41.91
2023-02-15T18:59:28.301Z,42.40
2023-02-15T19:02:14.247Z,42.99
2023-02-15T19:05:00.283Z,43.38
2023-02-15T19:07:46.281Z,44.17
2023-02-15T19:10:32.146Z,45.04
2023-02-15T19:13:18.020Z,44.99
2023-02-15T19:16:04.308Z,46.13
2023-02-15T19:18:50.450Z,46.55
2023-02-15T19:21:38.499Z,47.25
2023-02-15T19:24:25.238Z,47.56
2023-02-15T19:27:11.677Z,46.52
2023-02-15T19:29:57.606Z,45.58
2023-02-15T19:32:43.387Z,45.99
2023-02-15T19:35:29.289Z,45.82
2023-02-15T19:38:15.241Z,46.63
2023-02-15T19:41:01.491Z,46.09
2023-02-15T19:43:47.598Z,45.73
2023-02-15T19:46:33.580Z,44.10
2023-02-15T19:49:19.461Z,43.29
2023-02-15T19:52:05.364Z,43.12
2023-02-15T19:54:51.194Z,43.53
2023-02-15T19:57:36.999Z,43.94
2023-02-15T20:00:22.925Z,43.84
2023-02-15T20:03:09.049Z,44.24
2023-02-15T20:05:54.954Z,43.46
2023-02-15T20:08:40.754Z,43.31
2023-02-15T20:11:26.730Z,42.68
2023-02-15T20:14:12.555Z,43.00
2023-02-15T20:16:58.531Z,43.41
2023-02-15T20:19:46.418Z,43.34
2023-02-15T20:22:32.192Z,43.13
2023-02-15T20:25:18.202Z,42.99
2023-02-15T20:28:04.098Z,43.27
2023-02-15T20:30:49.869Z,45.21
2023-02-15T20:33:35.919Z,45.69
2023-02-15T20:36:22.001Z,45.76
2023-02-15T20:39:07.841Z,45.77
2023-02-15T20:41:53.757Z,45.51
2023-02-15T20:44:39.654Z,46.16
2023-02-15T20:47:27.536Z,45.52
2023-02-15T20:50:13.657Z,45.86
2023-02-15T20:52:59.473Z,46.08
2023-02-15T20:55:45.318Z,46.22
2023-02-15T20:58:31.216Z,44.88
2023-02-15T21:01:17.122Z,44.76
2023-02-15T21:04:03.062Z,43.74
2023-02-15T21:06:49.002Z,44.10
2023-02-15T21:09:34.779Z,44.40
2023-02-15T21:12:20.722Z,44.05
2023-02-15T21:15:06.506Z,43.61
2023-02-15T21:17:52.394Z,43.49
2023-02-15T21:20:38.259Z,43.79
2023-02-15T21:23:24.251Z,44.21
2023-02-15T21:26:10.229Z,44.61
2023-02-15T21:28:56.049Z,44.26
2023-02-15T21:31:42.055Z,44.04
2023-02-15T21:34:28.028Z,43.27
2023-02-15T21:37:13.852Z,42.73
2023-02-15T21:39:59.896Z,43.33
2023-02-15T21:42:45.783Z,42.86
2023-02-15T21:45:31.701Z,42.63
2023-02-15T21:48:17.669Z,42.42
2023-02-15T21:51:03.829Z,41.92
2023-02-15T21:53:50.033Z,41.83
2023-02-15T21:56:36.061Z,41.99
2023-02-15T21:59:22.062Z,41.74
2023-02-15T22:02:07.963Z,41.40
2023-02-15T22:04:54.057Z,41.04
2023-02-15T22:07:40.032Z,42.01
2023-02-15T22:10:25.904Z,41.27
2023-02-15T22:13:11.810Z,41.65
2023-02-15T22:15:59.712Z,42.25
2023-02-15T22:18:45.719Z,42.55
2023-02-15T22:21:31.587Z,43.66
2023-02-15T22:24:17.599Z,43.19
2023-02-15T22:27:03.655Z,44.03
2023-02-15T22:29:49.499Z,43.59
2023-02-15T22:32:35.630Z,43.95
2023-02-15T22:35:21.852Z,43.43
2023-02-15T22:38:07.739Z,44.37
2023-02-15T22:40:53.835Z,43.45
2023-02-15T22:43:39.631Z,43.53
2023-02-15T22:46:25.591Z,42.87
2023-02-15T22:49:11.420Z,42.44
2023-02-15T22:51:57.350Z,41.84
2023-02-15T22:54:43.392Z,42.15
2023-02-15T22:57:29.305Z,41.66
2023-02-15T23:00:15.156Z,42.20
2023-02-15T23:03:01.204Z,42.48
2023-02-15T23:05:46.970Z,42.03
2023-02-15T23:08:32.898Z,42.29
2023-02-15T23:11:18.882Z,41.84
2023-02-15T23:14:04.855Z,41.59
2023-02-15T23:16:50.893Z,40.70
2023-02-15T23:19:36.849Z,40.04
2023-02-15T23:22:22.815Z,39.86
2023-02-15T23:25:08.904Z,40.19
2023-02-15T23:27:54.671Z,39.20
2023-02-15T23:30:40.550Z,39.85
2023-02-15T23:33:26.555Z,39.18
2023-02-15T23:36:12.458Z,39.13
2023-02-15T23:38:58.467Z,40.04
2023-02-15T23:41:44.378Z,41.52
2023-02-15T23:44:30.379Z,42.14
2023-02-15T23:47:16.382Z,43.38
2023-02-15T23:50:03.211Z,43.89
2023-02-15T23:52:49.162Z,44.55
2023-02-15T23:55:35.234Z,45.09
2023-02-15T23:58:20.988Z,44.45
